createdAt,value
2023-05-04T00:01:24.007Z,17.60
2023-05-04T00:03:57.763Z,17.50
2023-05-04T00:06:31.418Z,17.30
2023-05-04T00:09:05.125Z,18.50
2023-05-04T00:11:38.704Z,16.60
2023-05-04T00:14:12.720Z,17.80
2023-05-04T00:16:46.337Z,15.90
2023-05-04T00:19:20.259Z,18.10
2023-05-04T00:21:54.304Z,17.10
2023-05-04T00:24:28.137Z,18.80
2023-05-04T00:27:02.709Z,17.50
2023-05-04T00:29:36.426Z,18.10
2023-05-04T00:32:10.906Z,18.30
2023-05-04T00:34:44.705Z,19.90
2023-05-04T00:37:18.411Z,19.50
2023-05-04T00:39:52.317Z,17.40
2023-05-04T00:42:26.464Z,19.10
2023-05-04T00:45:01.111Z,19.80
2023-05-04T00:47:34.873Z,18.60
2023-05-04T00:50:10.627Z,16.40
2023-05-04T00:52:46.547Z,17.80
2023-05-04T00:55:20.641Z,20.40
2023-05-04T00:57:54.945Z,16.90
2023-05-04T01:00:28.765Z,19.70
2023-05-04T01:03:02.840Z,17.30
2023-05-04T01:05:45.033Z,18.00
2023-05-04T01:08:27.530Z,17.90
2023-05-04T01:11:09.195Z,15.80
2023-05-04T01:13:44.956Z,20.00
2023-05-04T01:16:18.512Z,19.00
2023-05-04T01:18:52.273Z,17.50
2023-05-04T01:21:32.228Z,17.30
2023-05-04T01:24:06.310Z,15.10
2023-05-04T01:26:43.962Z,16.20
2023-05-04T01:29:20.767Z,17.60
2023-05-04T01:31:56.312Z,25.20
2023-05-04T01:34:29.750Z,19.20
2023-05-04T01:37:04.234Z,19.20
2023-05-04T01:39:38.223Z,18.80
2023-05-04T01:42:11.671Z,17.70
2023-05-04T01:44:45.290Z,15.40
2023-05-04T01:47:19.520Z,18.30
2023-05-04T01:49:52.885Z,16.30
2023-05-04T01:52:26.191Z,18.50
2023-05-04T01:55:00.121Z,17.50
2023-05-04T01:57:33.756Z,16.00
2023-05-04T02:00:08.368Z,17.70
2023-05-04T02:02:51.363Z,18.40
2023-05-04T02:05:25.870Z,25.10
2023-05-04T02:08:00.294Z,16.00
2023-05-04T02:10:34.270Z,18.30
2023-05-04T02:13:07.709Z,18.60
2023-05-04T02:15:41.167Z,15.80
2023-05-04T02:18:14.640Z,16.00
2023-05-04T02:20:48.536Z,17.10
2023-05-04T02:23:22.277Z,17.20
2023-05-04T02:25:56.371Z,17.20
2023-05-04T02:28:31.140Z,22.90
2023-05-04T02:31:04.635Z,19.60
2023-05-04T02:33:38.293Z,17.00
2023-05-04T02:36:12.500Z,16.80
2023-05-04T02:38:46.937Z,16.80
2023-05-04T02:41:20.869Z,15.40
2023-05-04T02:43:55.053Z,18.70
2023-05-04T02:46:28.493Z,17.30
2023-05-04T02:49:04.486Z,18.40
2023-05-04T02:51:38.379Z,14.30
2023-05-04T02:54:12.384Z,20.20
2023-05-04T02:56:46.102Z,15.40
2023-05-04T02:59:19.700Z,16.90
2023-05-04T03:01:53.761Z,18.70
2023-05-04T03:04:27.774Z,19.60
2023-05-04T03:07:02.043Z,18.30
2023-05-04T03:09:36.106Z,16.50
2023-05-04T03:12:09.865Z,19.80
2023-05-04T03:14:43.797Z,16.60
2023-05-04T03:17:18.141Z,17.30
2023-05-04T03:19:52.077Z,18.10
2023-05-04T03:22:26.429Z,18.30
2023-05-04T03:25:00.468Z,21.20
2023-05-04T03:27:34.144Z,18.50
2023-05-04T03:30:09.754Z,17.10
2023-05-04T03:32:43.867Z,16.40
2023-05-04T03:35:24.368Z,15.20
2023-05-04T03:37:59.983Z,20.30
2023-05-04T03:40:33.500Z,16.00
2023-05-04T03:43:07.182Z,19.70
2023-05-04T03:45:41.056Z,17.90
2023-05-04T03:48:14.875Z,17.30
2023-05-04T03:50:48.709Z,18.60
2023-05-04T03:53:22.271Z,17.20
2023-05-04T03:55:56.110Z,18.00
2023-05-04T03:58:30.034Z,15.30
2023-05-04T04:01:08.139Z,16.90
2023-05-04T04:03:42.399Z,15.90
2023-05-04T04:06:16.287Z,15.60
2023-05-04T04:08:50.103Z,16.20
2023-05-04T04:11:24.558Z,15.20
2023-05-04T04:13:58.079Z,18.90
2023-05-04T04:16:31.820Z,16.70
2023-05-04T04:19:07.163Z,17.00
2023-05-04T04:21:41.037Z,16.40
2023-05-04T04:24:14.711Z,20.50
2023-05-04T04:26:48.512Z,19.20
2023-05-04T04:29:22.250Z,18.60
2023-05-04T04:31:56.160Z,20.00
2023-05-04T04:34:30.178Z,17.70
2023-05-04T04:37:03.847Z,19.20
2023-05-04T04:39:37.340Z,21.20
2023-05-04T04:42:11.083Z,21.10
2023-05-04T04:44:46.035Z,17.90
2023-05-04T04:47:19.553Z,18.20
2023-05-04T04:49:53.152Z,19.10
2023-05-04T04:52:27.299Z,18.40
2023-05-04T04:55:00.996Z,20.90
2023-05-04T04:57:34.710Z,22.30
2023-05-04T05:00:11.697Z,19.90
2023-05-04T05:02:45.617Z,18.20
2023-05-04T05:05:19.584Z,19.10
2023-05-04T05:07:53.365Z,20.90
2023-05-04T05:10:27.295Z,22.50
2023-05-04T05:13:01.078Z,21.00
2023-05-04T05:15:35.028Z,25.50
2023-05-04T05:18:09.027Z,21.40
2023-05-04T05:20:42.994Z,23.40
2023-05-04T05:23:16.823Z,23.30
2023-05-04T05:25:51.866Z,24.00
2023-05-04T05:28:26.120Z,21.20
2023-05-04T05:31:00.216Z,24.30
2023-05-04T05:33:34.317Z,23.80
2023-05-04T05:36:08.491Z,21.30
2023-05-04T05:38:42.414Z,21.70
2023-05-04T05:41:16.713Z,24.20
2023-05-04T05:43:50.507Z,22.40
2023-05-04T05:46:25.442Z,23.00
2023-05-04T05:48:59.254Z,25.20
2023-05-04T05:51:33.711Z,24.60
2023-05-04T05:54:07.520Z,19.90
2023-05-04T05:56:41.415Z,26.00
2023-05-04T05:59:16.287Z,23.00
2023-05-04T06:01:50.426Z,22.40
2023-05-04T06:04:24.290Z,24.00
2023-05-04T06:06:58.597Z,22.50
2023-05-04T06:09:32.941Z,22.80
2023-05-04T06:12:12.660Z,21.60
2023-05-04T06:14:46.239Z,20.60
2023-05-04T06:17:22.147Z,22.80
2023-05-04T06:20:06.007Z,23.40
2023-05-04T06:22:40.080Z,22.00
2023-05-04T06:25:14.058Z,21.60
2023-05-04T06:27:48.088Z,19.00
2023-05-04T06:30:25.225Z,19.30
2023-05-04T06:32:58.786Z,15.50
2023-05-04T06:35:32.536Z,17.40
2023-05-04T06:38:06.063Z,18.90
2023-05-04T06:40:39.575Z,18.00
2023-05-04T06:43:13.320Z,19.10
2023-05-04T06:45:47.155Z,17.60
2023-05-04T06:48:20.571Z,18.90
2023-05-04T06:50:54.129Z,16.00
2023-05-04T06:53:28.370Z,17.60
2023-05-04T06:56:04.664Z,16.20
2023-05-04T06:58:39.212Z,16.60
2023-05-04T07:01:12.955Z,14.20
2023-05-04T07:03:46.604Z,16.90
2023-05-04T07:06:26.963Z,15.80
2023-05-04T07:09:00.270Z,15.50
2023-05-04T07:11:33.837Z,13.20
2023-05-04T07:14:09.735Z,13.30
2023-05-04T07:16:44.594Z,12.90
2023-05-04T07:19:18.257Z,11.10
2023-05-04T07:21:52.153Z,11.00
2023-05-04T07:24:25.926Z,13.30
2023-05-04T07:26:59.578Z,12.20
2023-05-04T07:29:33.920Z,10.60
2023-05-04T07:32:07.649Z,11.80
2023-05-04T07:34:45.514Z,12.40
2023-05-04T07:37:53.157Z,12.80
2023-05-04T07:40:27.153Z,11.50
2023-05-04T07:43:01.237Z,11.20
2023-05-04T07:45:35.071Z,12.00
2023-05-04T07:48:09.265Z,10.80
2023-05-04T07:51:36.615Z,12.70
2023-05-04T07:54:10.178Z,8.50
2023-05-04T07:56:43.986Z,12.30
2023-05-04T07:59:18.813Z,9.90
2023-05-04T08:01:52.914Z,9.00
2023-05-04T08:04:26.447Z,6.90
2023-05-04T08:07:00.031Z,7.50
2023-05-04T08:09:33.789Z,5.10
2023-05-04T08:12:08.323Z,5.10
2023-05-04T08:14:42.473Z,7.60
2023-05-04T08:17:16.163Z,3.30
2023-05-04T08:19:49.796Z,4.40
2023-05-04T08:22:23.578Z,4.20
2023-05-04T08:24:57.696Z,5.50
2023-05-04T08:27:31.676Z,4.30
2023-05-04T08:30:05.514Z,4.40
2023-05-04T08:32:39.536Z,3.50
2023-05-04T08:35:14.745Z,4.80
2023-05-04T08:37:49.485Z,4.70
2023-05-04T08:40:24.610Z,3.80
2023-05-04T08:42:58.748Z,4.60
2023-05-04T08:45:33.108Z,3.80
2023-05-04T08:48:07.872Z,3.90
2023-05-04T08:50:42.632Z,3.60
2023-05-04T08:53:17.769Z,3.40
2023-05-04T08:55:53.526Z,2.60
2023-05-04T08:58:29.049Z,3.60
2023-05-04T09:01:04.722Z,3.50
2023-05-04T09:03:39.224Z,3.80
2023-05-04T09:06:13.377Z,4.60
2023-05-04T09:08:47.881Z,5.60
2023-05-04T09:11:21.975Z,4.10
2023-05-04T09:13:55.797Z,5.60
2023-05-04T09:16:38.222Z,3.40
2023-05-04T09:19:22.907Z,4.50
2023-05-04T09:21:56.619Z,4.80
2023-05-04T09:24:31.291Z,4.80
2023-05-04T09:27:16.206Z,5.00
2023-05-04T09:29:56.790Z,3.90
2023-05-04T09:32:30.704Z,6.50
2023-05-04T09:35:04.299Z,5.10
2023-05-04T09:37:47.398Z,4.10
2023-05-04T09:40:31.337Z,3.70
2023-05-04T09:43:07.200Z,5.20
2023-05-04T09:45:49.623Z,8.30
2023-05-04T09:48:35.439Z,5.80
2023-05-04T09:51:10.561Z,5.60
2023-05-04T09:53:46.298Z,7.00
2023-05-04T09:56:29.288Z,5.30
2023-05-04T09:59:03.793Z,4.80
2023-05-04T10:01:38.380Z,4.90
2023-05-04T10:04:13.415Z,5.10
2023-05-04T10:06:47.685Z,3.80
2023-05-04T10:09:23.079Z,5.30
2023-05-04T10:12:00.063Z,6.50
2023-05-04T10:14:37.125Z,6.00
2023-05-04T10:17:23.004Z,4.00
2023-05-04T10:20:08.848Z,5.30
2023-05-04T10:22:59.428Z,6.80
2023-05-04T10:25:54.546Z,9.10
2023-05-04T10:28:43.790Z,6.50
2023-05-04T10:31:21.880Z,3.90
2023-05-04T10:33:56.634Z,6.20
2023-05-04T10:36:39.613Z,4.50
2023-05-04T10:39:23.055Z,5.30
2023-05-04T10:42:16.947Z,4.70
2023-05-04T10:44:57.594Z,6.20
2023-05-04T10:47:36.086Z,4.60
2023-05-04T10:50:14.735Z,4.70
2023-05-04T10:52:54.057Z,4.80
2023-05-04T10:55:41.098Z,5.80
2023-05-04T10:58:17.171Z,5.90
2023-05-04T11:00:55.060Z,5.10
2023-05-04T11:03:39.657Z,5.70
2023-05-04T11:06:24.005Z,4.30
2023-05-04T11:09:11.167Z,5.40
2023-05-04T11:11:45.515Z,4.40
2023-05-04T11:14:28.652Z,4.50
2023-05-04T11:17:27.600Z,4.80
2023-05-04T11:20:03.115Z,6.70
2023-05-04T11:22:38.748Z,3.50
2023-05-04T11:25:13.102Z,6.30
2023-05-04T11:27:50.847Z,5.80
2023-05-04T11:30:32.915Z,7.00
2023-05-04T11:33:14.448Z,3.40
2023-05-04T11:35:48.270Z,6.80
2023-05-04T11:38:22.847Z,6.30
2023-05-04T11:40:57.605Z,5.40
2023-05-04T11:43:32.280Z,4.10
2023-05-04T11:46:08.706Z,6.10
2023-05-04T11:48:45.846Z,4.10
2023-05-04T11:51:19.524Z,6.70
2023-05-04T11:53:53.189Z,5.70
2023-05-04T11:56:26.899Z,5.80
2023-05-04T11:59:11.363Z,4.50
2023-05-04T12:01:45.261Z,7.40
2023-05-04T12:04:19.344Z,6.20
2023-05-04T12:06:52.977Z,6.10
2023-05-04T12:09:27.264Z,5.40
2023-05-04T12:12:01.029Z,5.10
2023-05-04T12:14:35.270Z,5.60
2023-05-04T12:17:08.657Z,6.40
2023-05-04T12:19:51.430Z,4.00
2023-05-04T12:22:33.023Z,6.30
2023-05-04T12:25:09.512Z,5.90
2023-05-04T12:27:45.786Z,4.10
2023-05-04T12:30:20.101Z,6.10
2023-05-04T12:32:54.014Z,5.20
2023-05-04T12:35:28.317Z,5.60
2023-05-04T12:38:02.375Z,6.60
2023-05-04T12:40:36.826Z,4.80
2023-05-04T12:43:11.382Z,7.90
2023-05-04T12:45:45.014Z,6.90
2023-05-04T12:48:18.847Z,5.50
2023-05-04T12:50:53.346Z,8.60
2023-05-04T12:53:31.816Z,5.00
2023-05-04T12:56:05.991Z,6.80
2023-05-04T12:58:40.146Z,6.10
2023-05-04T13:01:13.832Z,4.00
2023-05-04T13:03:47.433Z,5.50
2023-05-04T13:06:21.638Z,13.30
2023-05-04T13:08:55.285Z,5.50
2023-05-04T13:11:29.386Z,9.50
2023-05-04T13:14:03.700Z,6.00
2023-05-04T13:16:37.659Z,5.60
2023-05-04T13:19:11.677Z,5.90
2023-05-04T13:21:45.809Z,6.20
2023-05-04T13:24:19.624Z,5.50
2023-05-04T13:26:53.419Z,8.90
2023-05-04T13:29:27.498Z,6.80
2023-05-04T13:32:01.132Z,5.80
2023-05-04T13:34:35.016Z,5.30
2023-05-04T13:37:08.736Z,4.50
2023-05-04T13:39:45.875Z,4.50
2023-05-04T13:42:20.343Z,5.90
2023-05-04T13:44:54.339Z,4.40
2023-05-04T13:47:27.883Z,6.20
2023-05-04T13:50:02.335Z,7.90
2023-05-04T13:52:36.322Z,3.90
2023-05-04T13:55:11.590Z,4.80
2023-05-04T13:57:45.662Z,6.70
2023-05-04T14:00:21.256Z,8.70
2023-05-04T14:02:55.317Z,7.50
2023-05-04T14:05:29.545Z,5.30
2023-05-04T14:08:03.586Z,6.40
2023-05-04T14:10:37.727Z,7.10
2023-05-04T14:13:11.793Z,8.60
2023-05-04T14:15:46.437Z,8.00
2023-05-04T14:18:20.424Z,6.30
2023-05-04T14:20:54.695Z,5.80
2023-05-04T14:23:28.560Z,5.20
2023-05-04T14:26:02.492Z,9.90
2023-05-04T14:28:36.778Z,8.40
2023-05-04T14:31:10.565Z,7.20
2023-05-04T14:33:45.928Z,7.90
2023-05-04T14:36:19.440Z,5.70
2023-05-04T14:38:53.418Z,6.50
2023-05-04T14:41:27.462Z,8.50
2023-05-04T14:44:22.980Z,6.80
2023-05-04T14:46:57.267Z,8.20
2023-05-04T14:52:09.587Z,6.10
2023-05-04T14:54:46.427Z,7.10
2023-05-04T14:57:20.180Z,7.10
2023-05-04T14:59:54.369Z,6.30
2023-05-04T15:02:28.312Z,6.70
2023-05-04T15:05:02.630Z,7.00
2023-05-04T15:07:36.539Z,6.00
2023-05-04T15:10:12.582Z,8.40
2023-05-04T15:12:46.776Z,5.80
2023-05-04T15:15:21.625Z,6.30
2023-05-04T15:17:59.815Z,7.40
2023-05-04T15:20:33.911Z,5.40
2023-05-04T15:23:11.374Z,7.20
2023-05-04T15:25:44.969Z,7.00
2023-05-04T15:28:23.004Z,6.40
2023-05-04T15:30:57.320Z,7.30
2023-05-04T15:33:31.502Z,5.50
2023-05-04T15:36:09.672Z,8.20
2023-05-04T15:38:45.289Z,6.80
2023-05-04T15:41:19.418Z,7.30
2023-05-04T15:43:53.364Z,6.80
2023-05-04T15:46:27.102Z,7.90
2023-05-04T15:49:01.026Z,8.00
2023-05-04T15:51:35.492Z,6.60
2023-05-04T15:54:09.502Z,8.10
2023-05-04T15:56:43.499Z,6.90
2023-05-04T15:59:18.300Z,9.20
2023-05-04T16:01:52.165Z,8.60
2023-05-04T16:04:25.798Z,6.30
2023-05-04T16:06:59.647Z,6.00
2023-05-04T16:09:33.584Z,8.00
2023-05-04T16:12:08.318Z,8.20
2023-05-04T16:14:42.267Z,5.00
2023-05-04T16:17:17.083Z,6.30
2023-05-04T16:19:50.748Z,7.70
2023-05-04T16:22:24.412Z,7.40
2023-05-04T16:24:58.016Z,6.50
2023-05-04T16:27:31.344Z,6.40
2023-05-04T16:30:05.069Z,7.40
2023-05-04T16:32:39.371Z,10.50
2023-05-04T16:35:13.588Z,9.10
2023-05-04T16:37:47.272Z,7.80
2023-05-04T16:40:21.923Z,6.90
2023-05-04T16:42:55.779Z,14.60
2023-05-04T16:45:32.212Z,7.50
2023-05-04T16:48:07.174Z,6.30
2023-05-04T16:50:41.745Z,7.00
2023-05-04T16:53:15.212Z,6.70
2023-05-04T16:55:48.991Z,8.10
2023-05-04T16:58:22.950Z,5.50
2023-05-04T17:00:58.651Z,6.90
2023-05-04T17:03:33.098Z,9.00
2023-05-04T17:06:07.750Z,10.30
2023-05-04T17:08:41.873Z,5.80
2023-05-04T17:11:16.396Z,7.10
2023-05-04T17:13:50.113Z,8.20
2023-05-04T17:16:23.528Z,11.40
2023-05-04T17:18:57.385Z,7.10
2023-05-04T17:21:31.524Z,7.70
2023-05-04T17:24:05.372Z,6.10
2023-05-04T17:26:39.516Z,8.30
2023-05-04T17:29:13.291Z,8.00
2023-05-04T17:31:46.824Z,8.90
2023-05-04T17:34:20.498Z,14.20
2023-05-04T17:36:54.241Z,8.60
2023-05-04T17:39:27.732Z,14.10
2023-05-04T17:42:02.076Z,8.20
2023-05-04T17:44:35.843Z,9.60
2023-05-04T17:47:09.809Z,14.00
2023-05-04T17:49:43.636Z,11.00
2023-05-04T17:52:17.816Z,11.30
2023-05-04T17:54:51.662Z,10.80
2023-05-04T17:57:25.276Z,12.10
2023-05-04T18:00:00.088Z,9.80
2023-05-04T18:02:34.970Z,7.50
2023-05-04T18:05:10.323Z,8.70
2023-05-04T18:07:44.241Z,7.60
2023-05-04T18:10:18.359Z,7.60
2023-05-04T18:12:56.970Z,10.20
2023-05-04T18:18:03.714Z,8.70
2023-05-04T18:20:37.179Z,9.70
2023-05-04T18:23:11.743Z,7.30
2023-05-04T18:25:45.809Z,8.50
2023-05-04T18:28:21.344Z,10.30
2023-05-04T18:30:55.332Z,12.70
2023-05-04T18:33:29.523Z,10.50
2023-05-04T18:36:03.888Z,13.70
2023-05-04T18:38:38.877Z,10.20
2023-05-04T18:41:13.687Z,11.80
2023-05-04T18:43:49.071Z,11.50
2023-05-04T18:46:28.186Z,9.30
2023-05-04T18:49:02.051Z,10.80
2023-05-04T18:51:42.369Z,11.30
2023-05-04T18:54:18.029Z,10.30
2023-05-04T18:56:54.437Z,12.10
2023-05-04T18:59:29.635Z,9.10
2023-05-04T19:02:05.998Z,12.70
2023-05-04T19:04:40.540Z,13.90
2023-05-04T19:07:15.757Z,12.80
2023-05-04T19:09:49.775Z,13.10
2023-05-04T19:12:24.322Z,10.30
2023-05-04T19:14:58.225Z,12.30
2023-05-04T19:17:35.435Z,12.20
2023-05-04T19:20:11.289Z,11.30
2023-05-04T19:22:45.269Z,14.40
2023-05-04T19:25:30.930Z,9.80
2023-05-04T19:28:09.771Z,7.10
2023-05-04T19:30:43.766Z,11.10
2023-05-04T19:33:17.112Z,8.70
2023-05-04T19:35:50.577Z,11.80
2023-05-04T19:38:24.790Z,12.40
2023-05-04T19:40:59.393Z,10.00
2023-05-04T19:43:33.941Z,9.10
2023-05-04T19:46:08.408Z,11.50
2023-05-04T19:48:42.229Z,11.60
2023-05-04T19:51:16.035Z,8.50
2023-05-04T19:53:49.408Z,9.60
2023-05-04T19:56:23.223Z,10.70
2023-05-04T19:58:57.439Z,9.40
2023-05-04T20:01:32.058Z,8.40
2023-05-04T20:04:08.635Z,9.60
2023-05-04T20:06:43.251Z,9.40
2023-05-04T20:09:18.036Z,11.30
2023-05-04T20:11:51.504Z,8.90
2023-05-04T20:14:25.776Z,11.20
2023-05-04T20:17:00.325Z,8.50
2023-05-04T20:19:34.504Z,11.50
2023-05-04T20:22:08.172Z,12.10
2023-05-04T20:24:41.551Z,10.90
2023-05-04T20:27:15.498Z,8.90
2023-05-04T20:29:49.249Z,10.80
2023-05-04T20:32:23.197Z,11.70
2023-05-04T20:34:56.955Z,11.40
2023-05-04T20:37:30.859Z,9.10
2023-05-04T20:40:04.543Z,11.60
2023-05-04T20:42:42.409Z,11.90
2023-05-04T20:45:15.685Z,9.80
2023-05-04T20:47:49.713Z,10.70
2023-05-04T20:50:23.355Z,10.60
2023-05-04T20:52:56.866Z,11.00
2023-05-04T20:55:33.340Z,9.10
2023-05-04T20:58:06.684Z,12.60
2023-05-04T21:00:40.451Z,9.70
2023-05-04T21:03:13.867Z,11.00
2023-05-04T21:05:47.438Z,10.80
2023-05-04T21:08:20.635Z,8.20
2023-05-04T21:10:54.003Z,11.60
2023-05-04T21:13:27.669Z,8.70
2023-05-04T21:16:01.940Z,10.80
2023-05-04T21:18:36.386Z,9.10
2023-05-04T21:21:10.542Z,8.50
2023-05-04T21:23:44.181Z,9.50
2023-05-04T21:26:18.223Z,8.30
2023-05-04T21:28:52.596Z,8.40
2023-05-04T21:31:26.644Z,9.50
2023-05-04T21:34:00.448Z,10.20
2023-05-04T21:36:33.993Z,11.50
2023-05-04T21:39:07.825Z,7.30
2023-05-04T21:41:41.579Z,11.10
2023-05-04T21:44:15.036Z,9.00
2023-05-04T21:46:48.761Z,11.00
2023-05-04T21:49:22.645Z,10.30
2023-05-04T21:51:56.248Z,9.30
2023-05-04T21:54:29.657Z,10.20
2023-05-04T21:57:03.916Z,10.90
2023-05-04T21:59:37.517Z,10.10
2023-05-04T22:02:11.417Z,10.40
2023-05-04T22:04:47.553Z,10.00
2023-05-04T22:07:21.096Z,9.40
2023-05-04T22:09:55.339Z,12.00
2023-05-04T22:12:29.263Z,10.60
2023-05-04T22:15:02.876Z,11.20
2023-05-04T22:17:36.585Z,12.40
2023-05-04T22:20:11.759Z,11.00
2023-05-04T22:22:45.371Z,12.40
2023-05-04T22:25:19.193Z,10.90
2023-05-04T22:27:53.036Z,13.70
2023-05-04T22:30:26.493Z,9.90
2023-05-04T22:33:00.108Z,11.60
2023-05-04T22:35:33.651Z,10.30
2023-05-04T22:38:07.679Z,10.90
2023-05-04T22:40:43.169Z,12.00
2023-05-04T22:43:16.815Z,11.70
2023-05-04T22:45:50.688Z,10.40
2023-05-04T22:48:24.329Z,9.60
2023-05-04T22:50:58.105Z,10.90
2023-05-04T22:53:31.757Z,13.30
2023-05-04T22:56:05.826Z,13.70
2023-05-04T22:58:39.981Z,11.80
2023-05-04T23:01:14.167Z,13.10
2023-05-04T23:03:50.642Z,10.00
2023-05-04T23:06:24.727Z,10.70
2023-05-04T23:08:58.412Z,10.00
2023-05-04T23:11:32.227Z,10.10
2023-05-04T23:14:05.742Z,12.10
2023-05-04T23:16:39.533Z,12.40
2023-05-04T23:19:13.423Z,12.00
2023-05-04T23:21:47.269Z,12.30
2023-05-04T23:24:21.041Z,11.30
2023-05-04T23:26:54.805Z,11.80
2023-05-04T23:29:28.605Z,11.30
2023-05-04T23:32:02.330Z,11.20
2023-05-04T23:34:36.149Z,10.60
2023-05-04T23:37:09.836Z,13.00
2023-05-04T23:39:43.493Z,11.60
2023-05-04T23:42:17.101Z,11.40
2023-05-04T23:44:50.469Z,12.60
2023-05-04T23:47:24.234Z,12.60
2023-05-04T23:49:57.816Z,12.10
2023-05-04T23:52:31.194Z,10.80
2023-05-04T23:55:05.176Z,11.50
2023-05-04T23:57:38.618Z,16.20
